Terminal Aerodrome Forecast
Issued by NWS Cleveland, OH

Home | Current Version | Previous Version | Text Only | Print | Product List | Glossary On
Versions: 1 2 3 4 5 6 7 8 9 10 11 12 13 14 15 16 17 18 19
648
FTUS41 KCLE 031139
TAFYNG
TAF
KYNG 031139Z 0312/0412 27008KT P6SM OVC018
     FM032100 25005KT P6SM OVC028
     FM040800 VRB03KT P6SM SCT030=

USA.gov is the U.S. government's official web portal to all federal, state and local government web resources and services.